Aeroporto :
LOGIN :

Iscrizione | Disclaimer

   EN    FR    IT 

 










Sommario :    VFR   VFR Marginale   IFR   IFR Intensivo   IFR Molto Intensivo
Visibilità : 
Base nubi : 
>= 8 km
>= 3000ft
5 / 8 km
1000 / 3000 ft
1500m / 5 km
500 / 1000 ft
800 / 1500m
200 / 500 ft
< 800m
< 200 ft
Simboli :   Temporali  Nebbia  Neve Forte  Precipitazioni Forti  Vento > 20 kt
SIGMETs :   Varie  Temporali  Ghiacco  Turbolenza  Onda orograficha  Ceneri Vulcaniche







- Altitudine del aeroporto : 479 ft
- Codice IATA : DOL
- Carte del aeroporto


LFRG - Deauville

ULTIMO METAR :
  • 200900Z AUTO 29007KT 260V320 8000 BKN007 OVC058 14/12 Q1013 BECMG BKN020

METARs OBSOLETI :
  • 200830Z AUTO 28009KT 4700 BR OVC005 13/11 Q1013 BECMG 9999 NSW BKN020
  • 200800Z AUTO 27007KT 3800 BR OVC004 12/11 Q1012 BECMG 9999 NSW BKN020
  • 200730Z AUTO 25007KT 3000 BR OVC004 12/11 Q1012 BECMG 9999 NSW BKN020
  • 200700Z AUTO 26007KT 2700 BR OVC004 12/11 Q1012 NOSIG
  • 200630Z AUTO 26006KT 230V290 2900 BR OVC004 12/11 Q1012 NOSIG

TAF TAF LFRG
Valido dal 20 a 09 ore il 20 a 18 ore UTC


200800Z 2009/2018 27005KT 4000 BR OVC004
BECMG 2009/2011 9999 NSW BKN020
PROB30
TEMPO 2011/2015 BKN008
PROB40
TEMPO 2011/2018 4000 SHRA BKN015CB
TEMPO 2013/2017 35010KT
ATIS : +33 2 31 65 65 36
Nessun NOTAM noto per questo aeroporto.



MetMap, La meteo Aeronautica in un colpo d'occhio ! - Copyright ORBIFLY Dicembre 2007 - Disclaimer

ORBIFLY MET'MAP TEAM :

Programmazione e sviluppo : Alexandra Zaïnal
Concezione e sviluppo : Baudouin d'Aumeries
Co-Programmazione e sviluppo : Marc-Olivier Méhu
Supporto tecnico e logistico : Manuel Goepfert
Aiuto per la traduzione : Arnaldo La Scala

Contatto : metmap@orbifly.com




FONTI E CREDITI :

   NOAA